This is the latest recevied weather packets stored in our database for station/object UA1CAS-13. If no packets are shown the sender has not sent any weather packets the latest 1 day(s).
| Time | Temp. | Humidity | Pressure | Rain* | Wind** | Luminosity | Snow |
|---|---|---|---|---|---|---|---|
| 1777892338 | 12.78° C | 70% | 1001 hPa | - | - | - | - |
| 1777891436 | 13.89° C | 65% | 1001 hPa | - | - | - | - |
| 1777890535 | 13.33° C | 67% | 1002 hPa | - | - | - | - |
| 1777889634 | 13.89° C | 66% | 1002 hPa | - | - | - | - |
| 1777888733 | 13.89° C | 66% | 1002 hPa | - | - | - | - |
| 1777887832 | 11.67° C | 74% | 1002 hPa | - | - | - | - |
| 1777886931 | 12.22° C | 71% | 1003 hPa | - | - | - | - |
| 1777886030 | 14.44° C | 63% | 1002 hPa | - | - | - | - |
| 1777885129 | 13.33° C | 67% | 1003 hPa | - | - | - | - |
| 1777884228 | 13.33° C | 70% | 1003 hPa | - | - | - | - |
| 1777883327 | 12.22° C | 73% | 1003 hPa | - | - | - | - |
| 1777882426 | 12.22° C | 74% | 1003 hPa | - | - | - | - |
| 1777881525 | 12.78° C | 72% | 1003 hPa | - | - | - | - |
| 1777880624 | 11.67° C | 75% | 1003 hPa | - | - | - | - |
| 1777879723 | 11.11° C | 77% | 1004 hPa | - | - | - | - |
| 1777878821 | 11.11° C | 77% | 1004 hPa | - | - | - | - |
| 1777877920 | 10.56° C | 79% | 1004 hPa | - | - | - | - |
| 1777877019 | 10° C | 83% | 1004 hPa | - | - | - | - |
| 1777876118 | 10° C | 85% | 1004 hPa | - | - | - | - |
| 1777875217 | 9.44° C | 87% | 1004 hPa | - | - | - | - |
| 1777874316 | 10.56° C | 82% | 1004 hPa | - | - | - | - |
| 1777873414 | 11.67° C | 82% | 1004 hPa | - | - | - | - |
| 1777872513 | 11.11° C | 85% | 1004 hPa | - | - | - | - |
| 1777871612 | 11.11° C | 85% | 1004 hPa | - | - | - | - |
| 1777870711 | 10.56° C | 86% | 1005 hPa | - | - | - | - |
* Rain since midnight (hover to see other rain measurements)
** Current wind speed in m/s (hover to see current wind gust speed)